createdAt,value
2019-03-22T00:00:52.110Z,95.49
2019-03-22T00:03:17.905Z,95.44
2019-03-22T00:05:43.687Z,95.57
2019-03-22T00:08:09.487Z,95.47
2019-03-22T00:10:35.263Z,95.44
2019-03-22T00:13:01.064Z,95.54
2019-03-22T00:15:26.841Z,95.63
2019-03-22T00:17:52.680Z,95.54
2019-03-22T00:20:18.468Z,95.49
2019-03-22T00:22:44.288Z,95.54
2019-03-22T00:25:10.058Z,95.62
2019-03-22T00:27:35.833Z,95.43
2019-03-22T00:30:06.361Z,95.41
2019-03-22T00:32:32.152Z,95.69
2019-03-22T00:34:57.940Z,95.69
2019-03-22T00:37:23.711Z,95.46
2019-03-22T00:39:49.515Z,95.46
2019-03-22T00:42:15.294Z,95.43
2019-03-22T00:44:41.083Z,95.57
2019-03-22T00:47:06.870Z,95.65
2019-03-22T00:49:32.651Z,95.43
2019-03-22T00:51:58.427Z,95.55
2019-03-22T00:54:24.218Z,95.46
2019-03-22T00:56:50.008Z,95.40
2019-03-22T00:59:15.804Z,95.41
2019-03-22T01:01:41.585Z,95.59
2019-03-22T01:04:07.381Z,95.57
2019-03-22T01:06:33.168Z,95.56
2019-03-22T01:08:59.062Z,95.37
2019-03-22T01:11:24.840Z,95.65
2019-03-22T01:13:50.620Z,95.57
2019-03-22T01:16:16.431Z,95.48
2019-03-22T01:18:42.213Z,95.59
2019-03-22T01:21:08.018Z,95.47
2019-03-22T01:23:33.793Z,95.44
2019-03-22T01:25:59.584Z,95.43
2019-03-22T01:28:25.378Z,95.35
2019-03-22T01:30:51.186Z,95.57
2019-03-22T01:33:16.971Z,95.90
2019-03-22T01:35:42.761Z,96.02
2019-03-22T01:38:08.540Z,95.95
2019-03-22T01:40:34.335Z,96.03
2019-03-22T01:43:00.116Z,95.99
2019-03-22T01:45:25.904Z,96.08
2019-03-22T01:47:51.690Z,96.06
2019-03-22T01:50:17.504Z,95.84
2019-03-22T01:52:43.277Z,95.98
2019-03-22T01:55:09.174Z,95.91
2019-03-22T01:57:34.952Z,95.94
2019-03-22T02:00:00.733Z,96.04
2019-03-22T02:02:26.527Z,95.85
2019-03-22T02:04:52.305Z,95.92
2019-03-22T02:07:18.103Z,95.89
2019-03-22T02:09:43.893Z,95.81
2019-03-22T02:12:09.674Z,96.26
2019-03-22T02:14:35.565Z,96.25
2019-03-22T02:17:01.378Z,96.25
2019-03-22T02:19:27.176Z,96.17
2019-03-22T02:21:52.968Z,96.02
2019-03-22T02:24:18.749Z,96.10
2019-03-22T02:26:44.542Z,95.88
2019-03-22T02:29:10.336Z,96.04
2019-03-22T02:31:36.185Z,96.13
2019-03-22T02:34:01.967Z,96.13
2019-03-22T02:36:27.756Z,96.24
2019-03-22T02:38:53.541Z,96.38
2019-03-22T02:41:19.329Z,96.51
2019-03-22T02:43:45.120Z,96.75
2019-03-22T02:46:10.915Z,96.42
2019-03-22T02:48:36.693Z,96.37
2019-03-22T02:51:02.478Z,96.50
2019-03-22T02:53:28.269Z,96.38
2019-03-22T02:55:54.195Z,96.22
2019-03-22T02:58:21.500Z,96.07
2019-03-22T03:00:47.439Z,96.08
2019-03-22T03:03:13.243Z,96.16
2019-03-22T03:05:39.018Z,95.98
2019-03-22T03:08:04.810Z,95.89
2019-03-22T03:10:30.588Z,95.96
2019-03-22T03:12:56.380Z,95.88
2019-03-22T03:15:22.176Z,95.84
2019-03-22T03:17:47.986Z,95.84
2019-03-22T03:20:17.540Z,95.77
2019-03-22T03:22:43.338Z,95.91
2019-03-22T03:25:09.317Z,95.85
2019-03-22T03:27:35.683Z,95.94
2019-03-22T03:30:03.487Z,95.97
2019-03-22T03:32:29.276Z,95.90
2019-03-22T03:34:55.054Z,95.91
2019-03-22T03:37:20.833Z,95.86
2019-03-22T03:39:46.627Z,96.06
2019-03-22T03:42:12.413Z,96.27
2019-03-22T03:44:38.200Z,96.41
2019-03-22T03:47:03.981Z,96.29
2019-03-22T03:49:29.782Z,96.08
2019-03-22T03:51:55.573Z,96.01
2019-03-22T03:54:21.359Z,96.00
2019-03-22T03:56:47.137Z,95.79
2019-03-22T03:59:12.929Z,95.87
2019-03-22T04:01:38.723Z,95.81
2019-03-22T04:04:04.514Z,95.81
2019-03-22T04:06:30.302Z,95.77
2019-03-22T04:08:56.084Z,96.09
2019-03-22T04:11:21.876Z,96.17
2019-03-22T04:13:47.686Z,95.84
2019-03-22T04:16:13.466Z,95.84
2019-03-22T04:18:39.259Z,95.98
2019-03-22T04:21:05.049Z,96.03
2019-03-22T04:23:30.863Z,96.23
2019-03-22T04:25:56.641Z,96.10
2019-03-22T04:28:22.421Z,95.99
2019-03-22T04:30:48.214Z,95.97
2019-03-22T04:33:13.993Z,96.11
2019-03-22T04:35:39.789Z,96.07
2019-03-22T04:38:05.571Z,96.06
2019-03-22T04:40:31.365Z,96.11
2019-03-22T04:42:57.141Z,95.85
2019-03-22T04:45:24.641Z,95.96
2019-03-22T04:47:57.409Z,95.77
2019-03-22T04:50:23.610Z,95.96
2019-03-22T04:52:49.694Z,95.87
2019-03-22T04:55:16.298Z,95.75
2019-03-22T04:57:42.084Z,95.86
2019-03-22T05:00:08.375Z,95.72
2019-03-22T05:02:34.261Z,95.61
2019-03-22T05:05:01.184Z,95.51
2019-03-22T05:07:27.569Z,95.62
2019-03-22T05:09:53.877Z,95.80
2019-03-22T05:12:20.161Z,95.74
2019-03-22T05:14:46.249Z,95.74
2019-03-22T05:17:12.759Z,95.70
2019-03-22T05:19:41.564Z,95.58
2019-03-22T05:22:09.966Z,95.53
2019-03-22T05:24:36.853Z,95.00
2019-03-22T05:27:04.044Z,95.23
2019-03-22T05:29:31.132Z,95.37
2019-03-22T05:32:05.699Z,95.38
2019-03-22T05:34:31.581Z,95.38
2019-03-22T05:36:57.380Z,95.39
2019-03-22T05:39:23.161Z,95.46
2019-03-22T05:41:48.948Z,95.32
2019-03-22T05:44:14.734Z,95.32
2019-03-22T05:46:40.534Z,95.22
2019-03-22T05:49:06.309Z,95.24
2019-03-22T05:51:32.104Z,95.34
2019-03-22T05:53:57.886Z,95.37
2019-03-22T05:56:23.680Z,95.27
2019-03-22T05:58:49.460Z,95.08
2019-03-22T06:01:15.244Z,95.16
2019-03-22T06:03:41.045Z,95.22
2019-03-22T06:06:06.826Z,95.18
2019-03-22T06:08:32.617Z,95.26
2019-03-22T06:10:58.405Z,95.37
2019-03-22T06:13:24.212Z,95.20
2019-03-22T06:15:49.989Z,95.22
2019-03-22T06:18:15.785Z,95.19
2019-03-22T06:20:41.579Z,95.23
2019-03-22T06:23:07.373Z,95.42
2019-03-22T06:25:33.163Z,95.67
2019-03-22T06:27:58.965Z,95.67
2019-03-22T06:30:24.747Z,95.57
2019-03-22T06:32:50.547Z,95.29
2019-03-22T06:35:16.329Z,95.24
2019-03-22T06:37:42.117Z,95.20
2019-03-22T06:40:07.911Z,95.29
2019-03-22T06:42:33.704Z,95.33
2019-03-22T06:44:59.481Z,95.32
2019-03-22T06:47:25.330Z,95.36
2019-03-22T06:49:51.484Z,95.54
2019-03-22T06:52:17.277Z,95.43
2019-03-22T06:54:43.057Z,95.35
2019-03-22T06:57:08.841Z,95.36
2019-03-22T06:59:34.628Z,95.41
2019-03-22T07:02:00.403Z,95.33
2019-03-22T07:04:30.042Z,95.07
2019-03-22T07:06:55.832Z,95.07
2019-03-22T07:09:21.642Z,95.39
2019-03-22T07:11:47.421Z,95.34
2019-03-22T07:14:13.218Z,95.36
2019-03-22T07:16:38.999Z,95.34
2019-03-22T07:19:04.906Z,95.47
2019-03-22T07:21:30.687Z,95.36
2019-03-22T07:23:56.594Z,95.31
2019-03-22T07:26:22.376Z,95.25
2019-03-22T07:28:48.165Z,95.26
2019-03-22T07:31:13.965Z,95.29
2019-03-22T07:33:39.752Z,95.29
2019-03-22T07:36:05.535Z,95.07
2019-03-22T07:38:31.337Z,94.91
2019-03-22T07:40:57.112Z,94.94
2019-03-22T07:43:22.915Z,95.04
2019-03-22T07:45:48.696Z,94.64
2019-03-22T07:48:14.527Z,94.90
2019-03-22T07:50:40.407Z,95.01
2019-03-22T07:53:06.192Z,94.99
2019-03-22T07:55:31.985Z,94.96
2019-03-22T07:57:57.767Z,95.00
2019-03-22T08:00:30.767Z,94.91
2019-03-22T08:02:51.260Z,94.86
2019-03-22T08:05:17.075Z,94.64
2019-03-22T08:07:42.853Z,94.72
2019-03-22T08:10:08.790Z,94.43
2019-03-22T08:12:34.562Z,94.64
2019-03-22T08:15:00.428Z,94.55
2019-03-22T08:17:26.383Z,94.52
2019-03-22T08:19:52.239Z,94.45
2019-03-22T08:22:18.089Z,94.33
2019-03-22T08:24:43.852Z,94.27
2019-03-22T08:27:09.640Z,94.25
2019-03-22T08:29:35.438Z,94.60
2019-03-22T08:32:01.226Z,94.46
2019-03-22T08:34:27.040Z,94.02
2019-03-22T08:36:52.810Z,93.85
2019-03-22T08:39:18.726Z,93.98
2019-03-22T08:41:44.515Z,93.65
2019-03-22T08:44:10.287Z,93.77
2019-03-22T08:46:36.102Z,93.92
2019-03-22T08:49:01.983Z,93.81
2019-03-22T08:51:29.877Z,93.67
2019-03-22T08:53:55.901Z,93.21
2019-03-22T08:56:21.901Z,93.18
2019-03-22T08:58:47.704Z,93.34
2019-03-22T09:01:13.481Z,93.21
2019-03-22T09:03:39.270Z,93.14
2019-03-22T09:06:07.783Z,93.18
2019-03-22T09:08:32.753Z,93.48
2019-03-22T09:10:58.560Z,93.81
2019-03-22T09:13:24.341Z,93.77
2019-03-22T09:15:50.170Z,93.70
2019-03-22T09:18:15.988Z,93.83
2019-03-22T09:20:41.839Z,93.91
2019-03-22T09:23:07.637Z,93.34
2019-03-22T09:25:33.417Z,93.32
2019-03-22T09:27:59.218Z,92.91
2019-03-22T09:30:25.061Z,92.91
2019-03-22T09:32:50.804Z,93.26
2019-03-22T09:35:16.622Z,93.04
2019-03-22T09:37:42.394Z,92.93
2019-03-22T09:40:08.782Z,92.95
2019-03-22T09:42:35.089Z,92.92
2019-03-22T09:45:00.927Z,92.68
2019-03-22T09:47:26.746Z,92.68
2019-03-22T09:49:52.516Z,92.89
2019-03-22T09:52:18.293Z,92.83
2019-03-22T09:54:44.106Z,92.81
2019-03-22T09:57:09.886Z,92.50
2019-03-22T09:59:35.665Z,92.53
2019-03-22T10:02:01.459Z,92.68
2019-03-22T10:04:27.241Z,92.17
2019-03-22T10:06:53.054Z,92.28
2019-03-22T10:09:18.926Z,92.20
2019-03-22T10:11:44.730Z,92.01
2019-03-22T10:14:10.511Z,91.99
2019-03-22T10:16:36.423Z,92.15
2019-03-22T10:19:02.156Z,91.92
2019-03-22T10:21:28.000Z,91.78
2019-03-22T10:23:53.806Z,91.50
2019-03-22T10:26:19.675Z,91.30
2019-03-22T10:28:45.434Z,91.27
2019-03-22T10:31:11.263Z,91.18
2019-03-22T10:33:37.011Z,90.53
2019-03-22T10:36:02.909Z,90.42
2019-03-22T10:38:31.716Z,90.65
2019-03-22T10:40:56.533Z,90.59
2019-03-22T10:43:22.391Z,90.48
2019-03-22T10:45:48.157Z,90.08
2019-03-22T10:48:13.997Z,90.01
2019-03-22T10:50:39.825Z,90.07
2019-03-22T10:53:05.641Z,89.49
2019-03-22T10:55:31.418Z,89.79
2019-03-22T10:57:57.216Z,88.98
2019-03-22T11:00:22.997Z,89.25
2019-03-22T11:02:48.886Z,88.64
2019-03-22T11:05:14.759Z,89.28
2019-03-22T11:07:40.587Z,89.34
2019-03-22T11:10:11.109Z,88.78
2019-03-22T11:12:36.816Z,88.28
2019-03-22T11:15:08.396Z,88.27
2019-03-22T11:17:34.408Z,87.75
2019-03-22T11:20:00.323Z,87.98
2019-03-22T11:22:26.155Z,87.98
2019-03-22T11:24:51.956Z,87.65
2019-03-22T11:27:17.775Z,87.26
2019-03-22T11:29:43.557Z,87.07
2019-03-22T11:32:12.857Z,87.19
2019-03-22T11:34:37.049Z,86.35
2019-03-22T11:37:02.940Z,86.60
2019-03-22T11:39:28.721Z,86.63
2019-03-22T11:41:54.522Z,86.27
2019-03-22T11:44:20.306Z,86.16
2019-03-22T11:46:46.097Z,85.94
2019-03-22T11:49:11.891Z,85.77
2019-03-22T11:51:37.669Z,86.30
2019-03-22T11:54:03.761Z,86.31
2019-03-22T11:56:29.553Z,85.79
2019-03-22T11:58:55.348Z,85.58
2019-03-22T12:01:22.490Z,85.81
2019-03-22T12:03:48.543Z,85.33
2019-03-22T12:06:14.331Z,84.57
2019-03-22T12:08:40.134Z,84.55
2019-03-22T12:11:05.930Z,84.76
2019-03-22T12:13:31.727Z,84.89
2019-03-22T12:15:57.501Z,84.48
2019-03-22T12:18:23.295Z,83.68
2019-03-22T12:20:49.091Z,83.68
2019-03-22T12:23:14.895Z,83.92
2019-03-22T12:25:40.682Z,84.17
2019-03-22T12:28:06.496Z,83.88
2019-03-22T12:30:32.276Z,83.94
2019-03-22T12:32:58.095Z,83.59
2019-03-22T12:35:23.878Z,84.01
2019-03-22T12:37:49.675Z,82.75
2019-03-22T12:40:18.275Z,82.86
2019-03-22T12:42:44.058Z,81.93
2019-03-22T12:45:18.382Z,81.47
2019-03-22T12:47:44.170Z,81.51
2019-03-22T12:50:10.073Z,81.29
2019-03-22T12:52:35.853Z,81.22
2019-03-22T12:55:04.250Z,81.30
2019-03-22T12:57:30.030Z,80.85
2019-03-22T12:59:55.829Z,80.45
2019-03-22T13:02:21.620Z,79.30
2019-03-22T13:04:47.465Z,80.12
2019-03-22T13:07:13.245Z,78.21
2019-03-22T13:09:39.038Z,77.57
2019-03-22T13:12:06.384Z,77.83
2019-03-22T13:14:32.309Z,78.05
2019-03-22T13:16:58.102Z,78.54
2019-03-22T13:19:23.958Z,77.93
2019-03-22T13:21:49.738Z,78.55
2019-03-22T13:24:15.530Z,77.91
2019-03-22T13:26:41.323Z,77.27
2019-03-22T13:29:07.245Z,78.04
2019-03-22T13:31:33.123Z,77.89
2019-03-22T13:33:58.901Z,76.17
2019-03-22T13:36:24.996Z,73.29
2019-03-22T13:38:50.781Z,74.41
2019-03-22T13:41:16.571Z,76.09
2019-03-22T13:43:42.462Z,77.41
2019-03-22T13:46:08.859Z,77.16
2019-03-22T13:48:34.648Z,76.92
2019-03-22T13:51:02.378Z,75.15
2019-03-22T13:53:28.157Z,75.74
2019-03-22T13:55:53.957Z,76.06
2019-03-22T13:58:19.739Z,75.75
2019-03-22T14:00:45.533Z,75.91
2019-03-22T14:03:11.321Z,75.28
2019-03-22T14:05:37.132Z,74.31
2019-03-22T14:08:02.913Z,74.34
2019-03-22T14:10:33.275Z,74.81
2019-03-22T14:13:00.266Z,74.69
2019-03-22T14:15:26.053Z,74.71
2019-03-22T14:17:51.839Z,75.02
2019-03-22T14:20:17.644Z,74.72
2019-03-22T14:22:43.439Z,74.95
2019-03-22T14:25:09.241Z,75.42
2019-03-22T14:27:35.030Z,75.41
2019-03-22T14:30:00.809Z,75.34
2019-03-22T14:32:26.601Z,74.42
2019-03-22T14:34:52.392Z,74.52
2019-03-22T14:37:18.204Z,74.12
2019-03-22T14:39:43.990Z,74.06
2019-03-22T14:42:10.129Z,75.36
2019-03-22T14:44:35.887Z,74.92
2019-03-22T14:47:01.680Z,73.25
2019-03-22T14:49:27.474Z,74.63
2019-03-22T14:51:53.277Z,74.62
2019-03-22T14:54:19.062Z,73.99
2019-03-22T14:56:44.854Z,73.84
2019-03-22T14:59:10.653Z,74.29
2019-03-22T15:01:36.592Z,74.20
2019-03-22T15:04:02.556Z,73.86
2019-03-22T15:06:28.346Z,74.49
2019-03-22T15:08:54.137Z,74.80
2019-03-22T15:11:20.050Z,74.68
2019-03-22T15:13:56.789Z,75.23
2019-03-22T15:16:27.047Z,74.33
2019-03-22T15:19:11.250Z,74.50
2019-03-22T15:21:54.095Z,74.28
2019-03-22T15:24:30.626Z,74.00
2019-03-22T15:27:14.776Z,74.24
2019-03-22T15:29:59.088Z,74.72
2019-03-22T15:32:43.486Z,74.33
2019-03-22T15:35:23.406Z,75.09
2019-03-22T15:38:07.898Z,74.73
2019-03-22T15:40:34.021Z,74.22
2019-03-22T15:42:59.813Z,74.32
2019-03-22T15:45:25.617Z,74.46
2019-03-22T15:47:51.409Z,74.64
2019-03-22T15:50:17.513Z,74.94
2019-03-22T15:52:43.413Z,75.45
2019-03-22T15:55:09.199Z,74.76
2019-03-22T15:57:35.093Z,75.29
2019-03-22T16:00:00.898Z,75.52
2019-03-22T16:02:26.705Z,76.28
2019-03-22T16:04:52.488Z,75.45
2019-03-22T16:07:18.386Z,75.52
2019-03-22T16:09:44.172Z,75.98
2019-03-22T16:12:09.965Z,75.86
2019-03-22T16:14:35.755Z,75.85
2019-03-22T16:17:01.551Z,76.07
2019-03-22T16:19:27.397Z,76.29
2019-03-22T16:21:53.175Z,76.42
2019-03-22T16:24:18.990Z,76.58
2019-03-22T16:26:44.768Z,76.90
2019-03-22T16:29:10.562Z,77.13
2019-03-22T16:31:36.367Z,77.12
2019-03-22T16:34:02.171Z,76.98
2019-03-22T16:36:27.951Z,77.19
2019-03-22T16:38:53.742Z,77.17
2019-03-22T16:41:19.524Z,77.54
2019-03-22T16:43:45.327Z,77.63
2019-03-22T16:46:11.118Z,77.94
2019-03-22T16:48:37.017Z,77.96
2019-03-22T16:51:02.802Z,78.33
2019-03-22T16:53:28.616Z,78.99
2019-03-22T16:55:54.401Z,79.06
2019-03-22T16:58:20.208Z,79.33
2019-03-22T17:00:45.991Z,79.80
2019-03-22T17:03:11.788Z,79.97
2019-03-22T17:05:37.575Z,80.38
2019-03-22T17:08:03.401Z,80.42
2019-03-22T17:10:29.181Z,80.51
2019-03-22T17:12:54.960Z,81.03
2019-03-22T17:15:20.748Z,81.04
2019-03-22T17:17:46.538Z,81.00
2019-03-22T17:20:12.461Z,81.58
2019-03-22T17:22:38.243Z,81.66
2019-03-22T17:25:05.540Z,82.14
2019-03-22T17:27:31.328Z,82.18
2019-03-22T17:29:57.133Z,82.51
2019-03-22T17:32:23.044Z,83.30
2019-03-22T17:34:48.827Z,83.60
2019-03-22T17:37:14.611Z,83.47
2019-03-22T17:39:40.399Z,83.87
2019-03-22T17:42:06.210Z,84.16
2019-03-22T17:44:31.968Z,84.48
2019-03-22T17:46:57.750Z,84.89
2019-03-22T17:49:23.551Z,84.89
2019-03-22T17:51:49.354Z,85.74
2019-03-22T17:54:15.155Z,85.75
2019-03-22T17:56:40.954Z,85.88
2019-03-22T17:59:06.761Z,85.88
2019-03-22T18:01:32.541Z,86.00
2019-03-22T18:03:58.416Z,86.48
2019-03-22T18:06:24.199Z,86.25
2019-03-22T18:08:50.003Z,86.20
2019-03-22T18:11:15.793Z,86.11
2019-03-22T18:13:41.580Z,86.26
2019-03-22T18:16:07.390Z,86.19
2019-03-22T18:18:33.175Z,86.48
2019-03-22T18:20:59.005Z,87.07
2019-03-22T18:23:24.785Z,86.98
2019-03-22T18:25:50.590Z,87.34
2019-03-22T18:28:16.369Z,87.41
2019-03-22T18:30:42.179Z,88.05
2019-03-22T18:33:07.963Z,87.61
2019-03-22T18:35:33.762Z,87.92
2019-03-22T18:37:59.565Z,87.83
2019-03-22T18:40:25.360Z,87.83
2019-03-22T18:42:51.156Z,88.03
2019-03-22T18:45:16.965Z,87.99
2019-03-22T18:47:42.747Z,87.87
2019-03-22T18:50:09.567Z,88.05
2019-03-22T18:52:35.356Z,87.71
2019-03-22T18:55:01.141Z,87.85
2019-03-22T18:57:26.937Z,87.97
2019-03-22T18:59:52.733Z,87.57
2019-03-22T19:02:18.539Z,87.96
2019-03-22T19:04:44.573Z,87.85
2019-03-22T19:07:10.429Z,87.28
2019-03-22T19:09:36.208Z,87.50
2019-03-22T19:12:02.313Z,87.86
2019-03-22T19:14:28.115Z,88.21
2019-03-22T19:16:53.909Z,88.67
2019-03-22T19:19:19.703Z,88.68
2019-03-22T19:21:45.512Z,89.00
2019-03-22T19:24:11.303Z,88.88
2019-03-22T19:26:37.102Z,89.36
2019-03-22T19:29:02.883Z,89.61
2019-03-22T19:31:28.689Z,89.53
2019-03-22T19:33:54.476Z,89.59
2019-03-22T19:36:20.328Z,90.12
2019-03-22T19:38:46.146Z,89.80
2019-03-22T19:41:11.928Z,90.07
2019-03-22T19:43:37.729Z,90.05
2019-03-22T19:46:03.516Z,90.28
2019-03-22T19:48:29.310Z,90.45
2019-03-22T19:50:55.107Z,90.83
2019-03-22T19:53:20.920Z,90.74
2019-03-22T19:55:46.707Z,90.74
2019-03-22T19:58:12.503Z,90.74
2019-03-22T20:00:38.305Z,90.52
2019-03-22T20:03:04.104Z,90.69
2019-03-22T20:05:31.399Z,90.79
2019-03-22T20:07:57.302Z,91.54
2019-03-22T20:10:23.120Z,91.83
2019-03-22T20:12:48.927Z,91.38
2019-03-22T20:15:14.714Z,92.09
2019-03-22T20:17:40.512Z,91.80
2019-03-22T20:20:07.417Z,92.04
2019-03-22T20:22:33.222Z,91.86
2019-03-22T20:24:59.017Z,91.86
2019-03-22T20:27:24.914Z,92.69
2019-03-22T20:29:50.709Z,92.14
2019-03-22T20:32:16.505Z,92.53
2019-03-22T20:34:42.300Z,92.46
2019-03-22T20:37:08.093Z,92.49
2019-03-22T20:39:33.901Z,92.57
2019-03-22T20:41:59.680Z,91.91
2019-03-22T20:44:33.545Z,92.31
2019-03-22T20:46:53.177Z,92.15
2019-03-22T20:49:18.973Z,92.15
2019-03-22T20:51:44.770Z,92.08
2019-03-22T20:54:10.573Z,92.08
2019-03-22T20:56:36.477Z,92.18
2019-03-22T20:59:02.242Z,92.75
2019-03-22T21:01:28.025Z,92.93
2019-03-22T21:03:53.820Z,93.04
2019-03-22T21:06:19.618Z,93.19
2019-03-22T21:08:45.400Z,92.89
2019-03-22T21:11:11.202Z,92.77
2019-03-22T21:13:37.207Z,92.87
2019-03-22T21:16:03.109Z,93.31
2019-03-22T21:18:28.895Z,93.05
2019-03-22T21:20:54.714Z,92.78
2019-03-22T21:23:20.487Z,93.24
2019-03-22T21:25:46.293Z,92.95
2019-03-22T21:28:12.078Z,93.13
2019-03-22T21:30:37.877Z,93.06
2019-03-22T21:33:03.667Z,92.97
2019-03-22T21:35:36.848Z,92.75
2019-03-22T21:37:57.147Z,92.64
2019-03-22T21:40:22.948Z,93.04
2019-03-22T21:42:49.136Z,93.11
2019-03-22T21:45:14.941Z,93.28
2019-03-22T21:47:40.718Z,93.28
2019-03-22T21:50:08.012Z,93.00
2019-03-22T21:52:33.801Z,93.07
2019-03-22T21:54:59.599Z,93.46
2019-03-22T21:57:25.378Z,93.60
2019-03-22T21:59:51.180Z,93.41
2019-03-22T22:02:16.968Z,93.27
2019-03-22T22:04:42.753Z,93.03
2019-03-22T22:07:08.745Z,93.07
2019-03-22T22:09:34.530Z,93.30
2019-03-22T22:12:00.326Z,93.25
2019-03-22T22:14:26.115Z,93.22
2019-03-22T22:16:51.911Z,93.33
2019-03-22T22:19:17.709Z,93.58
2019-03-22T22:21:43.513Z,93.79
2019-03-22T22:24:09.296Z,93.13
2019-03-22T22:26:35.093Z,94.12
2019-03-22T22:29:00.877Z,93.54
2019-03-22T22:31:26.675Z,93.42
2019-03-22T22:33:52.463Z,93.52
2019-03-22T22:36:18.261Z,93.95
2019-03-22T22:38:44.053Z,94.01
2019-03-22T22:41:09.987Z,94.17
2019-03-22T22:43:35.777Z,93.49
2019-03-22T22:46:01.582Z,93.96
2019-03-22T22:48:27.374Z,94.08
2019-03-22T22:50:53.169Z,93.97
2019-03-22T22:53:18.965Z,93.77
2019-03-22T22:55:44.770Z,94.40
2019-03-22T22:58:10.565Z,94.40
2019-03-22T23:00:36.651Z,93.96
2019-03-22T23:03:02.466Z,93.65
2019-03-22T23:05:28.249Z,93.65
2019-03-22T23:07:54.084Z,93.59
2019-03-22T23:10:19.976Z,93.62
2019-03-22T23:12:45.774Z,93.72
2019-03-22T23:15:11.751Z,93.46
2019-03-22T23:17:37.549Z,93.75
2019-03-22T23:20:04.345Z,94.04
2019-03-22T23:22:30.152Z,94.27
2019-03-22T23:24:55.935Z,94.27
2019-03-22T23:27:21.732Z,94.12
2019-03-22T23:29:47.523Z,94.61
2019-03-22T23:32:13.326Z,94.25
2019-03-22T23:34:39.124Z,94.15
2019-03-22T23:37:07.113Z,94.14
2019-03-22T23:39:32.611Z,94.48
2019-03-22T23:41:58.402Z,94.14
2019-03-22T23:44:24.200Z,94.22
2019-03-22T23:46:49.982Z,94.37
2019-03-22T23:49:15.978Z,94.34
2019-03-22T23:51:41.779Z,94.37
2019-03-22T23:54:07.574Z,94.05
2019-03-22T23:56:33.732Z,94.10
2019-03-22T23:58:59.549Z,93.55
